createdAt,value
2018-09-20T00:01:37.813Z,100788.04
2018-09-20T00:04:05.872Z,100795.63
2018-09-20T00:06:33.893Z,100793.53
2018-09-20T00:09:01.909Z,100799.00
2018-09-20T00:11:29.945Z,100806.22
2018-09-20T00:13:57.973Z,100797.62
2018-09-20T00:16:26.010Z,100792.89
2018-09-20T00:18:54.022Z,100793.42
2018-09-20T00:21:22.069Z,100788.80
2018-09-20T00:23:50.085Z,100795.45
2018-09-20T00:26:18.097Z,100786.70
2018-09-20T00:28:46.193Z,100790.45
2018-09-20T00:31:14.215Z,100783.65
2018-09-20T00:33:42.209Z,100782.49
2018-09-20T00:36:10.248Z,100775.58
2018-09-20T00:38:38.251Z,100775.34
2018-09-20T00:41:06.276Z,100771.38
2018-09-20T00:43:34.316Z,100776.13
2018-09-20T00:46:02.330Z,100775.30
2018-09-20T00:48:30.340Z,100781.99
2018-09-20T00:50:58.374Z,100779.45
2018-09-20T00:53:26.513Z,100777.14
2018-09-20T00:55:54.636Z,100774.98
2018-09-20T00:58:22.657Z,100775.00
2018-09-20T01:00:50.649Z,100771.08
2018-09-20T01:03:18.666Z,100772.25
2018-09-20T01:05:46.681Z,100773.00
2018-09-20T01:08:14.728Z,100770.84
2018-09-20T01:10:42.765Z,100768.16
2018-09-20T01:13:10.801Z,100769.36
2018-09-20T01:15:38.801Z,100766.43
2018-09-20T01:18:06.833Z,100765.96
2018-09-20T01:20:34.856Z,100765.82
2018-09-20T01:23:02.937Z,100765.28
2018-09-20T01:25:30.968Z,100763.63
2018-09-20T01:27:59.092Z,100763.94
2018-09-20T01:30:27.096Z,100756.16
2018-09-20T01:32:55.094Z,100762.70
2018-09-20T01:35:23.143Z,100758.54
2018-09-20T01:37:51.153Z,100760.77
2018-09-20T01:40:19.198Z,100762.03
2018-09-20T01:42:47.402Z,100758.26
2018-09-20T01:45:15.409Z,100762.19
2018-09-20T01:47:43.430Z,100765.17
2018-09-20T01:50:11.483Z,100759.59
2018-09-20T01:52:39.466Z,100752.51
2018-09-20T01:55:07.517Z,100759.97
2018-09-20T01:57:35.605Z,100756.34
2018-09-20T02:00:04.920Z,100759.86
2018-09-20T02:02:32.928Z,100761.05
2018-09-20T02:05:00.946Z,100754.29
2018-09-20T02:07:28.936Z,100750.71
2018-09-20T02:09:56.967Z,100752.51
2018-09-20T02:12:25.029Z,100754.34
2018-09-20T02:14:53.018Z,100758.17
2018-09-20T02:17:21.033Z,100750.71
2018-09-20T02:19:49.071Z,100751.66
2018-09-20T02:22:17.059Z,100752.36
2018-09-20T02:24:45.089Z,100756.97
2018-09-20T02:27:13.120Z,100757.41
2018-09-20T02:29:41.165Z,100761.38
2018-09-20T02:32:09.158Z,100756.02
2018-09-20T02:34:37.209Z,100754.45
2018-09-20T02:37:05.261Z,100761.18
2018-09-20T02:39:33.317Z,100767.53
2018-09-20T02:42:01.371Z,100759.97
2018-09-20T02:44:29.416Z,100761.24
2018-09-20T02:46:57.420Z,100759.66
2018-09-20T02:49:25.428Z,100762.03
2018-09-20T02:51:53.462Z,100762.67
2018-09-20T02:54:21.481Z,100757.56
2018-09-20T02:56:49.501Z,100758.09
2018-09-20T02:59:17.543Z,100755.69
2018-09-20T03:01:45.541Z,100758.77
2018-09-20T03:04:13.541Z,100754.24
2018-09-20T03:06:41.577Z,100755.48
2018-09-20T03:09:10.733Z,100757.80
2018-09-20T03:11:38.741Z,100757.59
2018-09-20T03:14:07.070Z,100751.91
2018-09-20T03:16:35.169Z,100752.75
2018-09-20T03:19:03.332Z,100754.22
2018-09-20T03:21:31.400Z,100756.13
2018-09-20T03:23:59.509Z,100756.42
2018-09-20T03:26:27.513Z,100758.16
2018-09-20T03:28:55.498Z,100755.42
2018-09-20T03:31:23.557Z,100761.95
2018-09-20T03:33:51.817Z,100761.91
2018-09-20T03:36:19.869Z,100763.02
2018-09-20T03:38:47.873Z,100761.95
2018-09-20T03:41:15.892Z,100752.37
2018-09-20T03:43:44.932Z,100753.44
2018-09-20T03:46:13.018Z,100749.99
2018-09-20T03:48:41.013Z,100751.63
2018-09-20T03:51:09.015Z,100756.76
2018-09-20T03:53:37.052Z,100752.67
2018-09-20T03:56:05.057Z,100753.08
2018-09-20T03:58:33.117Z,100753.23
2018-09-20T04:01:01.099Z,100754.60
2018-09-20T04:03:29.097Z,100755.34
2018-09-20T04:05:57.144Z,100757.25
2018-09-20T04:08:25.212Z,100760.84
2018-09-20T04:10:53.248Z,100760.86
2018-09-20T04:13:21.322Z,100759.02
2018-09-20T04:15:49.337Z,100760.44
2018-09-20T04:18:17.378Z,100756.96
2018-09-20T04:20:45.432Z,100764.83
2018-09-20T04:23:13.448Z,100768.50
2018-09-20T04:25:41.461Z,100763.39
2018-09-20T04:28:09.474Z,100762.15
2018-09-20T04:30:37.489Z,100762.11
2018-09-20T04:33:05.503Z,100762.78
2018-09-20T04:35:33.521Z,100763.66
2018-09-20T04:38:01.553Z,100769.93
2018-09-20T04:40:29.624Z,100762.16
2018-09-20T04:42:57.733Z,100767.16
2018-09-20T04:45:25.739Z,100771.30
2018-09-20T04:47:53.764Z,100770.03
2018-09-20T04:50:21.803Z,100776.52
2018-09-20T04:52:49.920Z,100774.36
2018-09-20T04:55:17.933Z,100777.77
2018-09-20T04:57:45.957Z,100777.67
2018-09-20T05:00:14.010Z,100777.91
2018-09-20T05:02:42.059Z,100783.55
2018-09-20T05:05:10.075Z,100782.70
2018-09-20T05:07:38.093Z,100789.64
2018-09-20T05:10:06.089Z,100791.47
2018-09-20T05:12:34.183Z,100791.04
2018-09-20T05:15:02.192Z,100790.63
2018-09-20T05:17:30.201Z,100788.20
2018-09-20T05:19:58.254Z,100785.78
2018-09-20T05:22:26.276Z,100788.67
2018-09-20T05:24:54.314Z,100787.45
2018-09-20T05:27:22.382Z,100784.16
2018-09-20T05:29:50.406Z,100792.30
2018-09-20T05:32:18.436Z,100783.64
2018-09-20T05:34:46.421Z,100791.09
2018-09-20T05:37:14.433Z,100786.22
2018-09-20T05:39:42.453Z,100785.38
2018-09-20T05:42:10.497Z,100791.96
2018-09-20T05:44:38.546Z,100789.41
2018-09-20T05:47:06.567Z,100790.23
2018-09-20T05:49:34.606Z,100797.98
2018-09-20T05:52:02.605Z,100789.16
2018-09-20T05:54:30.625Z,100784.02
2018-09-20T05:56:58.689Z,100785.36
2018-09-20T05:59:26.703Z,100792.95
2018-09-20T06:01:54.700Z,100795.47
2018-09-20T06:04:22.758Z,100788.64
2018-09-20T06:06:50.773Z,100797.34
2018-09-20T06:09:18.812Z,100800.02
2018-09-20T06:11:46.828Z,100800.72
2018-09-20T06:14:14.838Z,100801.16
2018-09-20T06:16:42.869Z,100793.85
2018-09-20T06:19:11.882Z,100799.35
2018-09-20T06:21:39.974Z,100804.44
2018-09-20T06:24:07.989Z,100799.77
2018-09-20T06:26:36.036Z,100813.46
2018-09-20T06:29:04.072Z,100820.58
2018-09-20T06:31:32.065Z,100825.62
2018-09-20T06:34:00.090Z,100826.83
2018-09-20T06:36:28.114Z,100821.66
2018-09-20T06:38:56.197Z,100819.74
2018-09-20T06:41:24.271Z,100820.36
2018-09-20T06:43:52.277Z,100823.28
2018-09-20T06:46:20.352Z,100813.03
2018-09-20T06:48:48.363Z,100815.78
2018-09-20T06:51:16.363Z,100824.13
2018-09-20T06:53:44.396Z,100819.59
2018-09-20T06:56:12.519Z,100821.53
2018-09-20T06:58:40.550Z,100828.05
2018-09-20T07:01:08.555Z,100832.26
2018-09-20T07:03:36.567Z,100840.63
2018-09-20T07:06:04.646Z,100842.27
2018-09-20T07:08:32.644Z,100839.00
2018-09-20T07:11:00.668Z,100826.56
2018-09-20T07:13:28.813Z,100837.77
2018-09-20T07:15:57.192Z,100839.21
2018-09-20T07:18:25.317Z,100838.21
2018-09-20T07:20:53.302Z,100832.86
2018-09-20T07:23:21.387Z,100845.73
2018-09-20T07:25:49.443Z,100846.42
2018-09-20T07:28:17.440Z,100847.92
2018-09-20T07:30:45.636Z,100849.83
2018-09-20T07:33:13.866Z,100849.79
2018-09-20T07:35:41.886Z,100860.00
2018-09-20T07:38:09.960Z,100851.80
2018-09-20T07:40:37.996Z,100847.03
2018-09-20T07:43:06.181Z,100846.52
2018-09-20T07:45:34.174Z,100844.19
2018-09-20T07:48:02.193Z,100843.12
2018-09-20T07:50:30.806Z,100847.17
2018-09-20T07:52:58.861Z,100838.28
2018-09-20T07:55:26.986Z,100827.50
2018-09-20T07:57:55.109Z,100834.84
2018-09-20T08:00:23.145Z,100827.95
2018-09-20T08:02:51.191Z,100816.55
2018-09-20T08:05:19.205Z,100817.63
2018-09-20T08:07:47.201Z,100826.19
2018-09-20T08:10:15.215Z,100817.47
2018-09-20T08:12:43.275Z,100818.01
2018-09-20T08:15:11.245Z,100820.86
2018-09-20T08:17:39.347Z,100825.38
2018-09-20T08:20:07.500Z,100821.35
2018-09-20T08:22:35.548Z,100829.84
2018-09-20T08:25:03.561Z,100831.72
2018-09-20T08:27:31.644Z,100826.22
2018-09-20T08:29:59.832Z,100821.73
2018-09-20T08:32:27.897Z,100826.94
2018-09-20T08:34:55.945Z,100827.37
2018-09-20T08:37:23.953Z,100819.93
2018-09-20T08:39:52.018Z,100817.82
2018-09-20T08:42:20.179Z,100819.42
2018-09-20T08:44:48.090Z,100816.54
2018-09-20T08:47:16.097Z,100820.67
2018-09-20T08:49:44.123Z,100813.42
2018-09-20T08:52:12.157Z,100823.03
2018-09-20T08:54:40.193Z,100811.21
2018-09-20T08:57:08.371Z,100810.33
2018-09-20T08:59:36.359Z,100810.67
2018-09-20T09:02:04.490Z,100801.16
2018-09-20T09:04:32.643Z,100805.52
2018-09-20T09:07:00.592Z,100797.88
2018-09-20T09:09:28.627Z,100798.96
2018-09-20T09:11:56.712Z,100787.33
2018-09-20T09:14:25.758Z,100789.86
2018-09-20T09:16:53.798Z,100789.35
2018-09-20T09:19:21.957Z,100789.03
2018-09-20T09:21:50.095Z,100786.31
2018-09-20T09:24:18.138Z,100786.97
2018-09-20T09:26:46.147Z,100783.51
2018-09-20T09:29:14.243Z,100776.55
2018-09-20T09:31:42.290Z,100786.33
2018-09-20T09:34:10.360Z,100782.59
2018-09-20T09:36:38.633Z,100776.88
2018-09-20T09:39:09.056Z,100772.16
2018-09-20T09:41:37.037Z,100767.59
2018-09-20T09:44:05.127Z,100765.94
2018-09-20T09:46:33.191Z,100761.52
2018-09-20T09:49:01.232Z,100755.66
2018-09-20T09:51:29.317Z,100746.88
2018-09-20T09:53:57.562Z,100754.63
2018-09-20T09:56:25.705Z,100744.91
2018-09-20T09:58:53.774Z,100745.59
2018-09-20T10:01:21.822Z,100744.84
2018-09-20T10:03:49.928Z,100738.39
2018-09-20T10:06:18.025Z,100734.56
2018-09-20T10:08:46.052Z,100724.70
2018-09-20T10:11:14.133Z,100729.43
2018-09-20T10:13:42.185Z,100732.26
2018-09-20T10:16:10.189Z,100731.24
2018-09-20T10:18:38.250Z,100727.50
2018-09-20T10:21:06.360Z,100722.53
2018-09-20T10:23:34.373Z,100713.77
2018-09-20T10:26:02.429Z,100715.63
2018-09-20T10:28:30.437Z,100710.09
2018-09-20T10:30:58.527Z,100705.78
2018-09-20T10:33:26.559Z,100694.52
2018-09-20T10:35:54.593Z,100690.73
2018-09-20T10:38:22.664Z,100694.44
2018-09-20T10:40:50.708Z,100686.51
2018-09-20T10:43:18.738Z,100683.57
2018-09-20T10:45:46.781Z,100673.63
2018-09-20T10:48:14.765Z,100676.74
2018-09-20T10:50:42.905Z,100676.69
2018-09-20T10:53:10.952Z,100678.34
2018-09-20T10:55:38.985Z,100676.42
2018-09-20T10:58:07.048Z,100671.77
2018-09-20T11:00:35.085Z,100668.84
2018-09-20T11:03:03.129Z,100666.71
2018-09-20T11:05:31.152Z,100670.00
2018-09-20T11:07:59.156Z,100660.64
2018-09-20T11:10:27.235Z,100655.00
2018-09-20T11:12:55.405Z,100666.69
2018-09-20T11:15:23.429Z,100663.31
2018-09-20T11:17:51.438Z,100659.90
2018-09-20T11:20:19.455Z,100659.95
2018-09-20T11:22:47.453Z,100651.53
2018-09-20T11:25:15.545Z,100655.36
2018-09-20T11:27:43.596Z,100648.80
2018-09-20T11:30:11.633Z,100653.52
2018-09-20T11:32:39.683Z,100639.52
2018-09-20T11:35:08.351Z,100640.98
2018-09-20T11:37:36.508Z,100642.03
2018-09-20T11:40:04.588Z,100637.00
2018-09-20T11:42:32.805Z,100631.80
2018-09-20T11:45:00.802Z,100624.16
2018-09-20T11:47:28.866Z,100624.83
2018-09-20T11:49:56.892Z,100635.79
2018-09-20T11:52:24.958Z,100628.39
2018-09-20T11:54:52.964Z,100624.33
2018-09-20T11:57:21.045Z,100624.53
2018-09-20T11:59:49.180Z,100629.03
2018-09-20T12:02:17.197Z,100617.45
2018-09-20T12:04:45.236Z,100615.44
2018-09-20T12:07:13.241Z,100611.19
2018-09-20T12:09:41.451Z,100622.69
2018-09-20T12:12:09.521Z,100618.03
2018-09-20T12:14:37.662Z,100613.16
2018-09-20T12:17:05.609Z,100616.19
2018-09-20T12:19:33.596Z,100611.50
2018-09-20T12:22:01.640Z,100602.90
2018-09-20T12:24:29.660Z,100609.89
2018-09-20T12:26:57.713Z,100604.40
2018-09-20T12:29:25.742Z,100609.48
2018-09-20T12:31:53.785Z,100607.61
2018-09-20T12:34:22.835Z,100610.23
2018-09-20T12:36:50.970Z,100597.69
2018-09-20T12:39:18.986Z,100598.41
2018-09-20T12:41:47.017Z,100597.16
2018-09-20T12:44:15.197Z,100602.69
2018-09-20T12:46:43.229Z,100602.29
2018-09-20T12:49:12.326Z,100602.95
2018-09-20T12:51:40.370Z,100603.55
2018-09-20T12:54:08.468Z,100594.66
2018-09-20T12:56:37.496Z,100592.79
2018-09-20T12:59:05.737Z,100592.16
2018-09-20T13:01:33.775Z,100588.11
2018-09-20T13:04:01.793Z,100585.25
2018-09-20T13:06:29.818Z,100583.16
2018-09-20T13:08:57.854Z,100575.98
2018-09-20T13:11:25.913Z,100580.86
2018-09-20T13:13:53.918Z,100576.97
2018-09-20T13:16:21.948Z,100571.38
2018-09-20T13:18:50.959Z,100581.92
2018-09-20T13:21:19.046Z,100585.56
2018-09-20T13:23:47.076Z,100573.30
2018-09-20T13:26:15.090Z,100574.30
2018-09-20T13:28:43.340Z,100575.66
2018-09-20T13:31:11.588Z,100577.64
2018-09-20T13:34:06.489Z,100573.42
2018-09-20T13:36:34.505Z,100586.41
2018-09-20T13:39:02.729Z,100574.38
2018-09-20T13:41:30.765Z,100567.56
2018-09-20T13:43:58.821Z,100558.66
2018-09-20T13:46:26.934Z,100566.20
2018-09-20T13:48:55.017Z,100566.23
2018-09-20T13:51:23.081Z,100563.30
2018-09-20T13:53:51.589Z,100547.62
2018-09-20T13:56:19.652Z,100543.01
2018-09-20T13:58:47.732Z,100545.13
2018-09-20T14:01:15.952Z,100536.70
2018-09-20T14:03:44.337Z,100529.11
2018-09-20T14:06:12.330Z,100528.24
2018-09-20T14:08:40.463Z,100520.84
2018-09-20T14:11:08.529Z,100525.39
2018-09-20T14:13:36.601Z,100522.63
2018-09-20T14:16:04.657Z,100526.81
2018-09-20T14:18:32.724Z,100520.11
2018-09-20T14:21:00.899Z,100528.97
2018-09-20T14:23:28.933Z,100527.67
2018-09-20T14:25:57.093Z,100527.27
2018-09-20T14:28:25.227Z,100533.30
2018-09-20T14:30:53.241Z,100519.89
2018-09-20T14:33:21.337Z,100523.33
2018-09-20T14:35:49.375Z,100523.14
2018-09-20T14:38:17.532Z,100511.45
2018-09-20T14:40:45.597Z,100506.64
2018-09-20T14:43:13.867Z,100510.72
2018-09-20T14:45:41.973Z,100505.28
2018-09-20T14:48:09.989Z,100511.57
2018-09-20T14:50:37.996Z,100516.16
2018-09-20T14:53:06.063Z,100513.47
2018-09-20T14:55:34.061Z,100504.63
2018-09-20T14:58:02.089Z,100504.15
2018-09-20T15:00:30.113Z,100515.83
2018-09-20T15:02:58.161Z,100505.61
2018-09-20T15:05:26.169Z,100500.64
2018-09-20T15:07:54.168Z,100502.03
2018-09-20T15:10:22.249Z,100495.03
2018-09-20T15:12:50.278Z,100493.61
2018-09-20T15:15:18.285Z,100495.12
2018-09-20T15:17:46.333Z,100488.70
2018-09-20T15:20:14.337Z,100493.22
2018-09-20T15:22:43.341Z,100491.59
2018-09-20T15:25:11.369Z,100497.87
2018-09-20T15:27:39.398Z,100497.13
2018-09-20T15:30:07.941Z,100492.48
2018-09-20T15:32:35.996Z,100495.86
2018-09-20T15:35:04.009Z,100490.58
2018-09-20T15:37:32.057Z,100485.50
2018-09-20T15:40:00.116Z,100478.13
2018-09-20T15:42:28.097Z,100488.67
2018-09-20T15:44:56.159Z,100478.06
2018-09-20T15:47:24.184Z,100479.89
2018-09-20T15:49:52.397Z,100471.83
2018-09-20T15:52:20.522Z,100471.64
2018-09-20T15:54:48.527Z,100468.31
2018-09-20T15:57:16.570Z,100473.83
2018-09-20T15:59:44.592Z,100476.88
2018-09-20T16:02:12.617Z,100470.66
2018-09-20T16:04:40.649Z,100470.52
2018-09-20T16:07:08.669Z,100470.66
2018-09-20T16:09:36.704Z,100463.67
2018-09-20T16:12:04.727Z,100463.14
2018-09-20T16:14:32.746Z,100457.61
2018-09-20T16:17:00.746Z,100451.66
2018-09-20T16:19:28.914Z,100449.04
2018-09-20T16:21:57.046Z,100448.56
2018-09-20T16:24:25.121Z,100435.39
2018-09-20T16:26:53.117Z,100438.08
2018-09-20T16:29:34.129Z,100445.40
2018-09-20T16:32:24.765Z,100437.67
2018-09-20T16:35:06.112Z,100431.30
2018-09-20T16:37:51.738Z,100430.48
2018-09-20T16:40:21.952Z,100425.87
2018-09-20T16:42:50.697Z,100423.48
2018-09-20T16:45:18.765Z,100421.09
2018-09-20T16:47:46.803Z,100412.73
2018-09-20T16:50:14.806Z,100412.44
2018-09-20T16:52:42.844Z,100408.45
2018-09-20T16:55:10.889Z,100408.05
2018-09-20T16:57:38.889Z,100403.34
2018-09-20T17:00:08.734Z,100404.30
2018-09-20T17:02:36.796Z,100403.60
2018-09-20T17:05:04.796Z,100404.52
2018-09-20T17:07:32.785Z,100404.41
2018-09-20T17:10:00.809Z,100408.47
2018-09-20T17:12:28.865Z,100402.53
2018-09-20T17:14:56.954Z,100404.34
2018-09-20T17:17:24.834Z,100401.98
2018-09-20T17:19:52.900Z,100394.48
2018-09-20T17:22:20.892Z,100387.72
2018-09-20T17:24:49.078Z,100379.86
2018-09-20T17:27:17.153Z,100375.02
2018-09-20T17:29:45.179Z,100375.66
2018-09-20T17:32:13.179Z,100376.15
2018-09-20T17:34:41.310Z,100374.80
2018-09-20T17:37:10.369Z,100367.77
2018-09-20T17:39:39.825Z,100365.62
2018-09-20T17:42:08.301Z,100360.42
2018-09-20T17:44:36.336Z,100363.56
2018-09-20T17:47:04.341Z,100366.46
2018-09-20T17:49:32.381Z,100361.45
2018-09-20T17:52:00.837Z,100369.55
2018-09-20T17:54:29.177Z,100371.21
2018-09-20T17:56:57.655Z,100367.81
2018-09-20T17:59:25.677Z,100375.92
2018-09-20T18:01:53.749Z,100369.88
2018-09-20T18:04:21.760Z,100369.29
2018-09-20T18:06:49.981Z,100363.73
2018-09-20T18:09:18.029Z,100367.79
2018-09-20T18:11:46.048Z,100362.98
2018-09-20T18:14:14.079Z,100359.08
2018-09-20T18:16:42.141Z,100357.21
2018-09-20T18:19:11.182Z,100366.80
2018-09-20T18:21:39.209Z,100358.22
2018-09-20T18:24:07.212Z,100359.78
2018-09-20T18:26:35.285Z,100355.01
2018-09-20T18:29:03.324Z,100351.70
2018-09-20T18:31:31.316Z,100353.27
2018-09-20T18:33:59.531Z,100351.40
2018-09-20T18:36:27.555Z,100351.00
2018-09-20T18:38:55.549Z,100344.20
2018-09-20T18:41:23.557Z,100344.34
2018-09-20T18:43:51.561Z,100343.78
2018-09-20T18:46:19.597Z,100342.52
2018-09-20T18:48:47.865Z,100344.16
2018-09-20T18:51:16.019Z,100334.54
2018-09-20T18:53:44.045Z,100342.12
2018-09-20T18:56:12.145Z,100337.23
2018-09-20T18:58:40.228Z,100342.63
2018-09-20T19:01:08.344Z,100337.53
2018-09-20T19:03:36.321Z,100339.58
2018-09-20T19:06:04.392Z,100333.22
2018-09-20T19:08:32.424Z,100335.48
2018-09-20T19:11:00.436Z,100330.48
2018-09-20T19:13:28.929Z,100330.79
2018-09-20T19:15:57.961Z,100320.63
2018-09-20T19:18:25.987Z,100328.37
2018-09-20T19:20:54.017Z,100324.83
2018-09-20T19:23:22.107Z,100326.59
2018-09-20T19:25:50.129Z,100322.66
2018-09-20T19:28:18.169Z,100325.11
2018-09-20T19:30:46.198Z,100321.57
2018-09-20T19:33:14.217Z,100321.20
2018-09-20T19:35:42.325Z,100317.66
2018-09-20T19:38:10.353Z,100313.30
2018-09-20T19:40:38.506Z,100313.53
2018-09-20T19:43:06.558Z,100312.07
2018-09-20T19:45:34.587Z,100302.09
2018-09-20T19:48:02.660Z,100302.73
2018-09-20T19:50:30.796Z,100290.03
2018-09-20T19:52:58.925Z,100296.19
2018-09-20T19:55:27.066Z,100296.59
2018-09-20T19:57:55.259Z,100295.77
2018-09-20T20:00:23.362Z,100296.43
2018-09-20T20:02:51.470Z,100298.00
2018-09-20T20:05:19.494Z,100294.27
2018-09-20T20:07:48.334Z,100294.96
2018-09-20T20:10:16.492Z,100291.93
2018-09-20T20:12:44.674Z,100284.85
2018-09-20T20:15:12.751Z,100282.99
2018-09-20T20:17:40.871Z,100280.16
2018-09-20T20:20:08.917Z,100274.28
2018-09-20T20:22:37.189Z,100270.05
2018-09-20T20:25:05.274Z,100269.92
2018-09-20T20:27:33.436Z,100274.33
2018-09-20T20:30:01.482Z,100266.37
2018-09-20T20:32:29.598Z,100266.30
2018-09-20T20:34:57.553Z,100251.44
2018-09-20T20:37:25.593Z,100253.77
2018-09-20T20:39:53.662Z,100250.47
2018-09-20T20:42:21.610Z,100248.20
2018-09-20T20:44:49.680Z,100249.84
2018-09-20T20:47:17.721Z,100244.48
2018-09-20T20:49:45.760Z,100245.30
2018-09-20T20:52:13.779Z,100244.82
2018-09-20T20:54:41.833Z,100231.16
2018-09-20T20:57:09.918Z,100225.78
2018-09-20T20:59:38.084Z,100223.93
2018-09-20T21:02:06.112Z,100217.84
2018-09-20T21:04:35.228Z,100214.17
2018-09-20T21:07:03.228Z,100207.46
2018-09-20T21:09:31.369Z,100206.47
2018-09-20T21:11:59.535Z,100201.41
2018-09-20T21:14:27.661Z,100201.77
2018-09-20T21:16:55.650Z,100193.72
2018-09-20T21:19:23.665Z,100181.20
2018-09-20T21:21:51.668Z,100182.54
2018-09-20T21:24:19.744Z,100182.02
2018-09-20T21:26:47.822Z,100179.50
2018-09-20T21:29:15.904Z,100175.47
2018-09-20T21:31:43.912Z,100164.25
2018-09-20T21:34:13.301Z,100161.26
2018-09-20T21:36:42.289Z,100150.36
2018-09-20T21:39:14.262Z,100149.02
2018-09-20T21:41:43.768Z,100145.31
2018-09-20T21:44:11.782Z,100142.31
2018-09-20T21:46:40.985Z,100143.30
2018-09-20T21:49:09.044Z,100139.27
2018-09-20T21:51:39.153Z,100136.27
2018-09-20T21:54:09.346Z,100131.41
2018-09-20T21:56:39.034Z,100128.89
2018-09-20T21:59:07.825Z,100121.16
2018-09-20T22:01:42.153Z,100125.22
2018-09-20T22:04:11.184Z,100121.86
2018-09-20T22:06:41.429Z,100122.02
2018-09-20T22:09:11.708Z,100109.77
2018-09-20T22:11:41.949Z,100110.56
2018-09-20T22:14:14.099Z,100110.72
2018-09-20T22:16:43.091Z,100109.98
2018-09-20T22:19:13.222Z,100104.21
2018-09-20T22:21:43.981Z,100097.18
2018-09-20T22:24:14.805Z,100091.97
2018-09-20T22:26:45.626Z,100094.05
2018-09-20T22:29:14.166Z,100092.81
2018-09-20T22:31:42.314Z,100086.23
2018-09-20T22:34:10.333Z,100083.53
2018-09-20T22:36:38.381Z,100080.19
2018-09-20T22:39:09.224Z,100081.98
2018-09-20T22:41:37.260Z,100069.44
2018-09-20T22:44:05.406Z,100068.00
2018-09-20T22:46:33.457Z,100064.00
2018-09-20T22:49:02.162Z,100063.84
2018-09-20T22:51:30.206Z,100064.42
2018-09-20T22:53:58.216Z,100061.80
2018-09-20T22:56:26.245Z,100062.11
2018-09-20T22:58:54.273Z,100060.41
2018-09-20T23:01:22.280Z,100053.59
2018-09-20T23:03:51.376Z,100052.31
2018-09-20T23:06:19.405Z,100042.97
2018-09-20T23:08:47.644Z,100042.30
2018-09-20T23:11:15.676Z,100037.64
2018-09-20T23:13:43.698Z,100031.02
2018-09-20T23:16:11.715Z,100029.17
2018-09-20T23:18:39.713Z,100032.98
2018-09-20T23:21:07.729Z,100031.38
2018-09-20T23:23:35.812Z,100028.45
2018-09-20T23:26:03.833Z,100016.58
2018-09-20T23:28:31.868Z,100016.73
2018-09-20T23:30:59.940Z,100010.55
2018-09-20T23:33:27.925Z,100003.78
2018-09-20T23:35:55.939Z,100006.51
2018-09-20T23:38:24.141Z,100001.61
2018-09-20T23:40:52.184Z,99995.42
2018-09-20T23:43:20.205Z,99992.41
2018-09-20T23:45:48.369Z,99990.92
2018-09-20T23:48:16.393Z,99991.75
2018-09-20T23:50:44.436Z,99985.52
2018-09-20T23:53:12.460Z,99986.33
2018-09-20T23:55:40.484Z,99970.85
2018-09-20T23:58:08.546Z,99970.52
